sensor_id;sensor_type;location;lat;lon;timestamp;pressure;altitude;pressure_sealevel;temperature
24639;BMP180;1641;51.306;12.384;2022-12-07T00:01:32;99914.00;;;4.90
24639;BMP180;1641;51.306;12.384;2022-12-07T00:04:00;99939.00;;;4.90
24639;BMP180;1641;51.306;12.384;2022-12-07T00:06:37;99948.00;;;4.90
24639;BMP180;1641;51.306;12.384;2022-12-07T00:09:04;99942.00;;;5.10
24639;BMP180;1641;51.306;12.384;2022-12-07T00:11:36;99931.00;;;4.80
24639;BMP180;1641;51.306;12.384;2022-12-07T00:14:05;99941.00;;;4.90
24639;BMP180;1641;51.306;12.384;2022-12-07T00:16:32;99934.00;;;5.00
24639;BMP180;1641;51.306;12.384;2022-12-07T00:18:58;99915.00;;;5.10
24639;BMP180;1641;51.306;12.384;2022-12-07T00:21:27;99934.00;;;4.60
24639;BMP180;1641;51.306;12.384;2022-12-07T00:23:53;99929.00;;;4.90
24639;BMP180;1641;51.306;12.384;2022-12-07T00:26:22;99931.00;;;5.20
24639;BMP180;1641;51.306;12.384;2022-12-07T00:28:49;99924.00;;;5.00
24639;BMP180;1641;51.306;12.384;2022-12-07T00:31:17;99921.00;;;4.70
24639;BMP180;1641;51.306;12.384;2022-12-07T00:33:43;99918.00;;;4.70
24639;BMP180;1641;51.306;12.384;2022-12-07T00:36:11;99917.00;;;4.90
24639;BMP180;1641;51.306;12.384;2022-12-07T00:38:40;99918.00;;;4.80
24639;BMP180;1641;51.306;12.384;2022-12-07T00:41:11;99919.00;;;4.90
24639;BMP180;1641;51.306;12.384;2022-12-07T00:43:36;99905.00;;;4.60
24639;BMP180;1641;51.306;12.384;2022-12-07T00:46:02;99905.00;;;4.70
24639;BMP180;1641;51.306;12.384;2022-12-07T00:48:30;99870.00;;;4.60
24639;BMP180;1641;51.306;12.384;2022-12-07T00:50:56;99898.00;;;4.50
24639;BMP180;1641;51.306;12.384;2022-12-07T00:53:21;99900.00;;;4.30
24639;BMP180;1641;51.306;12.384;2022-12-07T00:55:47;99909.00;;;4.50
24639;BMP180;1641;51.306;12.384;2022-12-07T00:58:12;99912.00;;;4.30
24639;BMP180;1641;51.306;12.384;2022-12-07T01:00:40;99904.00;;;4.20
24639;BMP180;1641;51.306;12.384;2022-12-07T01:03:07;99875.00;;;4.20
24639;BMP180;1641;51.306;12.384;2022-12-07T01:05:33;99901.00;;;3.90
24639;BMP180;1641;51.306;12.384;2022-12-07T01:07:58;99887.00;;;3.90
24639;BMP180;1641;51.306;12.384;2022-12-07T01:10:24;99883.00;;;4.10
24639;BMP180;1641;51.306;12.384;2022-12-07T01:12:49;99903.00;;;3.90
24639;BMP180;1641;51.306;12.384;2022-12-07T01:15:20;99898.00;;;4.00
24639;BMP180;1641;51.306;12.384;2022-12-07T01:17:55;99893.00;;;3.70
24639;BMP180;1641;51.306;12.384;2022-12-07T01:20:20;99899.00;;;3.60
24639;BMP180;1641;51.306;12.384;2022-12-07T01:22:45;99897.00;;;3.60
24639;BMP180;1641;51.306;12.384;2022-12-07T01:25:11;99892.00;;;3.70
24639;BMP180;1641;51.306;12.384;2022-12-07T01:27:39;99893.00;;;3.80
24639;BMP180;1641;51.306;12.384;2022-12-07T01:30:06;99888.00;;;3.70
24639;BMP180;1641;51.306;12.384;2022-12-07T01:32:32;99886.00;;;3.70
24639;BMP180;1641;51.306;12.384;2022-12-07T01:34:58;99893.00;;;3.50
24639;BMP180;1641;51.306;12.384;2022-12-07T01:37:37;99887.00;;;3.50
24639;BMP180;1641;51.306;12.384;2022-12-07T01:40:07;99879.00;;;3.50
24639;BMP180;1641;51.306;12.384;2022-12-07T01:42:33;99884.00;;;3.70
24639;BMP180;1641;51.306;12.384;2022-12-07T01:45:40;99879.00;;;3.70
24639;BMP180;1641;51.306;12.384;2022-12-07T01:48:07;99883.00;;;3.60
24639;BMP180;1641;51.306;12.384;2022-12-07T01:50:34;99872.00;;;3.50
24639;BMP180;1641;51.306;12.384;2022-12-07T01:53:03;99872.00;;;3.50
24639;BMP180;1641;51.306;12.384;2022-12-07T01:55:29;99884.00;;;3.70
24639;BMP180;1641;51.306;12.384;2022-12-07T01:57:55;99878.00;;;3.70
24639;BMP180;1641;51.306;12.384;2022-12-07T02:00:23;99881.00;;;3.70
24639;BMP180;1641;51.306;12.384;2022-12-07T02:02:57;99879.00;;;3.70
24639;BMP180;1641;51.306;12.384;2022-12-07T02:05:25;99881.00;;;3.50
24639;BMP180;1641;51.306;12.384;2022-12-07T02:07:53;99845.00;;;3.30
24639;BMP180;1641;51.306;12.384;2022-12-07T02:10:22;99866.00;;;3.40
24639;BMP180;1641;51.306;12.384;2022-12-07T02:12:55;99856.00;;;3.60
24639;BMP180;1641;51.306;12.384;2022-12-07T02:15:22;99856.00;;;3.50
24639;BMP180;1641;51.306;12.384;2022-12-07T02:18:08;99858.00;;;3.40
24639;BMP180;1641;51.306;12.384;2022-12-07T02:25:07;99841.00;;;3.30
24639;BMP180;1641;51.306;12.384;2022-12-07T02:35:16;99838.00;;;3.00
24639;BMP180;1641;51.306;12.384;2022-12-07T02:37:51;99842.00;;;3.20
24639;BMP180;1641;51.306;12.384;2022-12-07T02:43:24;99830.00;;;3.20
24639;BMP180;1641;51.306;12.384;2022-12-07T02:45:59;99825.00;;;3.20
24639;BMP180;1641;51.306;12.384;2022-12-07T02:48:26;99824.00;;;3.20
24639;BMP180;1641;51.306;12.384;2022-12-07T02:50:53;99823.00;;;3.40
24639;BMP180;1641;51.306;12.384;2022-12-07T02:53:34;99812.00;;;3.30
24639;BMP180;1641;51.306;12.384;2022-12-07T02:56:07;99810.00;;;3.30
24639;BMP180;1641;51.306;12.384;2022-12-07T03:01:30;99794.00;;;3.40
24639;BMP180;1641;51.306;12.384;2022-12-07T03:06:50;99798.00;;;3.10
24639;BMP180;1641;51.306;12.384;2022-12-07T03:09:28;99793.00;;;3.20
24639;BMP180;1641;51.306;12.384;2022-12-07T03:12:10;99792.00;;;3.30
24639;BMP180;1641;51.306;12.384;2022-12-07T03:14:44;99794.00;;;3.20
24639;BMP180;1641;51.306;12.384;2022-12-07T03:17:17;99789.00;;;3.40
24639;BMP180;1641;51.306;12.384;2022-12-07T03:19:45;99798.00;;;3.40
24639;BMP180;1641;51.306;12.384;2022-12-07T03:22:13;99798.00;;;3.30
24639;BMP180;1641;51.306;12.384;2022-12-07T03:24:43;99802.00;;;3.50
24639;BMP180;1641;51.306;12.384;2022-12-07T03:27:14;99799.00;;;3.50
24639;BMP180;1641;51.306;12.384;2022-12-07T03:29:45;99790.00;;;3.40
24639;BMP180;1641;51.306;12.384;2022-12-07T03:32:37;99785.00;;;3.50
24639;BMP180;1641;51.306;12.384;2022-12-07T03:35:15;99782.00;;;3.70
24639;BMP180;1641;51.306;12.384;2022-12-07T03:42:41;99775.00;;;3.50
24639;BMP180;1641;51.306;12.384;2022-12-07T03:45:08;99771.00;;;3.80
24639;BMP180;1641;51.306;12.384;2022-12-07T03:47:42;99784.00;;;3.80
24639;BMP180;1641;51.306;12.384;2022-12-07T03:50:41;99768.00;;;3.90
24639;BMP180;1641;51.306;12.384;2022-12-07T03:53:22;99765.00;;;3.80
24639;BMP180;1641;51.306;12.384;2022-12-07T03:55:50;99772.00;;;4.00
24639;BMP180;1641;51.306;12.384;2022-12-07T03:58:20;99760.00;;;4.00
24639;BMP180;1641;51.306;12.384;2022-12-07T04:00:47;99773.00;;;3.90
24639;BMP180;1641;51.306;12.384;2022-12-07T04:03:14;99764.00;;;4.20
24639;BMP180;1641;51.306;12.384;2022-12-07T04:05:39;99763.00;;;3.90
24639;BMP180;1641;51.306;12.384;2022-12-07T04:08:05;99758.00;;;4.10
24639;BMP180;1641;51.306;12.384;2022-12-07T04:10:31;99764.00;;;4.10
24639;BMP180;1641;51.306;12.384;2022-12-07T04:12:56;99757.00;;;4.30
24639;BMP180;1641;51.306;12.384;2022-12-07T04:15:21;99761.00;;;4.20
24639;BMP180;1641;51.306;12.384;2022-12-07T04:17:47;99753.00;;;3.90
24639;BMP180;1641;51.306;12.384;2022-12-07T04:20:12;99757.00;;;4.10
24639;BMP180;1641;51.306;12.384;2022-12-07T04:22:41;99753.00;;;4.20
24639;BMP180;1641;51.306;12.384;2022-12-07T04:25:06;99743.00;;;4.30
24639;BMP180;1641;51.306;12.384;2022-12-07T04:27:31;99749.00;;;4.20
24639;BMP180;1641;51.306;12.384;2022-12-07T04:29:57;99746.00;;;4.40
24639;BMP180;1641;51.306;12.384;2022-12-07T04:32:25;99740.00;;;4.30
24639;BMP180;1641;51.306;12.384;2022-12-07T04:34:50;99745.00;;;4.20
24639;BMP180;1641;51.306;12.384;2022-12-07T04:37:16;99729.00;;;4.40
24639;BMP180;1641;51.306;12.384;2022-12-07T04:39:42;99731.00;;;4.30
24639;BMP180;1641;51.306;12.384;2022-12-07T04:42:10;99732.00;;;4.20
24639;BMP180;1641;51.306;12.384;2022-12-07T04:44:39;99743.00;;;4.10
24639;BMP180;1641;51.306;12.384;2022-12-07T04:47:04;99730.00;;;4.00
24639;BMP180;1641;51.306;12.384;2022-12-07T04:49:29;99735.00;;;3.90
24639;BMP180;1641;51.306;12.384;2022-12-07T04:51:55;99732.00;;;4.00
24639;BMP180;1641;51.306;12.384;2022-12-07T04:54:21;99721.00;;;4.20
24639;BMP180;1641;51.306;12.384;2022-12-07T04:56:46;99722.00;;;4.30
24639;BMP180;1641;51.306;12.384;2022-12-07T04:59:13;99718.00;;;4.50
24639;BMP180;1641;51.306;12.384;2022-12-07T05:01:39;99696.00;;;4.20
24639;BMP180;1641;51.306;12.384;2022-12-07T05:04:05;99717.00;;;4.10
24639;BMP180;1641;51.306;12.384;2022-12-07T05:06:30;99714.00;;;4.20
24639;BMP180;1641;51.306;12.384;2022-12-07T05:08:59;99712.00;;;4.20
24639;BMP180;1641;51.306;12.384;2022-12-07T05:11:30;99712.00;;;4.20
24639;BMP180;1641;51.306;12.384;2022-12-07T05:14:12;99716.00;;;4.60
24639;BMP180;1641;51.306;12.384;2022-12-07T05:16:39;99723.00;;;4.40
24639;BMP180;1641;51.306;12.384;2022-12-07T05:19:05;99716.00;;;4.60
24639;BMP180;1641;51.306;12.384;2022-12-07T05:21:30;99718.00;;;4.60
24639;BMP180;1641;51.306;12.384;2022-12-07T05:23:59;99713.00;;;4.40
24639;BMP180;1641;51.306;12.384;2022-12-07T05:26:24;99729.00;;;4.50
24639;BMP180;1641;51.306;12.384;2022-12-07T05:28:54;99693.00;;;4.40
24639;BMP180;1641;51.306;12.384;2022-12-07T05:31:26;99717.00;;;4.30
24639;BMP180;1641;51.306;12.384;2022-12-07T05:33:52;99701.00;;;4.30
24639;BMP180;1641;51.306;12.384;2022-12-07T05:36:18;99709.00;;;4.40
24639;BMP180;1641;51.306;12.384;2022-12-07T05:38:43;99719.00;;;4.50
24639;BMP180;1641;51.306;12.384;2022-12-07T05:41:13;99694.00;;;4.60
24639;BMP180;1641;51.306;12.384;2022-12-07T05:44:02;99712.00;;;4.20
24639;BMP180;1641;51.306;12.384;2022-12-07T05:46:27;99706.00;;;4.30
24639;BMP180;1641;51.306;12.384;2022-12-07T05:48:59;99708.00;;;4.50
24639;BMP180;1641;51.306;12.384;2022-12-07T05:51:24;99701.00;;;4.70
24639;BMP180;1641;51.306;12.384;2022-12-07T05:53:50;99702.00;;;4.60
24639;BMP180;1641;51.306;12.384;2022-12-07T05:56:18;99699.00;;;4.60
24639;BMP180;1641;51.306;12.384;2022-12-07T05:58:43;99697.00;;;4.50
24639;BMP180;1641;51.306;12.384;2022-12-07T06:01:27;99701.00;;;4.70
24639;BMP180;1641;51.306;12.384;2022-12-07T06:03:56;99696.00;;;4.70
24639;BMP180;1641;51.306;12.384;2022-12-07T06:06:21;99677.00;;;5.10
24639;BMP180;1641;51.306;12.384;2022-12-07T06:08:46;99694.00;;;4.90
24639;BMP180;1641;51.306;12.384;2022-12-07T06:11:15;99699.00;;;4.70
24639;BMP180;1641;51.306;12.384;2022-12-07T06:14:11;99692.00;;;4.50
24639;BMP180;1641;51.306;12.384;2022-12-07T06:16:37;99678.00;;;4.70
24639;BMP180;1641;51.306;12.384;2022-12-07T06:19:08;99645.00;;;4.80
24639;BMP180;1641;51.306;12.384;2022-12-07T06:21:34;99690.00;;;4.70
24639;BMP180;1641;51.306;12.384;2022-12-07T06:24:02;99647.00;;;5.00
24639;BMP180;1641;51.306;12.384;2022-12-07T06:26:28;99684.00;;;4.80
24639;BMP180;1641;51.306;12.384;2022-12-07T06:28:53;99694.00;;;4.60
24639;BMP180;1641;51.306;12.384;2022-12-07T06:31:19;99700.00;;;4.70
24639;BMP180;1641;51.306;12.384;2022-12-07T06:33:58;99686.00;;;4.50
24639;BMP180;1641;51.306;12.384;2022-12-07T06:36:23;99691.00;;;4.50
24639;BMP180;1641;51.306;12.384;2022-12-07T06:38:52;99698.00;;;4.60
24639;BMP180;1641;51.306;12.384;2022-12-07T06:41:17;99682.00;;;4.50
24639;BMP180;1641;51.306;12.384;2022-12-07T06:43:43;99694.00;;;4.30
24639;BMP180;1641;51.306;12.384;2022-12-07T06:46:08;99690.00;;;4.40
24639;BMP180;1641;51.306;12.384;2022-12-07T06:48:36;99693.00;;;4.40
24639;BMP180;1641;51.306;12.384;2022-12-07T06:51:02;99695.00;;;4.40
24639;BMP180;1641;51.306;12.384;2022-12-07T06:53:30;99711.00;;;4.50
24639;BMP180;1641;51.306;12.384;2022-12-07T06:55:55;99707.00;;;4.70
24639;BMP180;1641;51.306;12.384;2022-12-07T06:58:21;99705.00;;;4.70
24639;BMP180;1641;51.306;12.384;2022-12-07T07:00:47;99711.00;;;4.70
24639;BMP180;1641;51.306;12.384;2022-12-07T07:03:16;99698.00;;;4.90
24639;BMP180;1641;51.306;12.384;2022-12-07T07:05:43;99712.00;;;4.60
24639;BMP180;1641;51.306;12.384;2022-12-07T07:08:14;99716.00;;;4.40
24639;BMP180;1641;51.306;12.384;2022-12-07T07:10:40;99713.00;;;4.70
24639;BMP180;1641;51.306;12.384;2022-12-07T07:13:05;99707.00;;;4.60
24639;BMP180;1641;51.306;12.384;2022-12-07T07:15:31;99714.00;;;4.60
24639;BMP180;1641;51.306;12.384;2022-12-07T07:17:57;99719.00;;;4.60
24639;BMP180;1641;51.306;12.384;2022-12-07T07:20:22;99704.00;;;4.70
24639;BMP180;1641;51.306;12.384;2022-12-07T07:22:48;99666.00;;;4.70
24639;BMP180;1641;51.306;12.384;2022-12-07T07:25:14;99718.00;;;4.80
24639;BMP180;1641;51.306;12.384;2022-12-07T07:27:40;99725.00;;;4.80
24639;BMP180;1641;51.306;12.384;2022-12-07T07:30:05;99716.00;;;5.20
24639;BMP180;1641;51.306;12.384;2022-12-07T07:32:31;99723.00;;;5.00
24639;BMP180;1641;51.306;12.384;2022-12-07T07:34:56;99725.00;;;5.20
24639;BMP180;1641;51.306;12.384;2022-12-07T07:37:21;99729.00;;;5.20
24639;BMP180;1641;51.306;12.384;2022-12-07T07:39:47;99731.00;;;5.50
24639;BMP180;1641;51.306;12.384;2022-12-07T07:42:12;99729.00;;;5.30
24639;BMP180;1641;51.306;12.384;2022-12-07T07:44:37;99725.00;;;5.30
24639;BMP180;1641;51.306;12.384;2022-12-07T07:47:03;99724.00;;;4.80
24639;BMP180;1641;51.306;12.384;2022-12-07T07:49:28;99730.00;;;5.00
24639;BMP180;1641;51.306;12.384;2022-12-07T07:51:54;99737.00;;;5.20
24639;BMP180;1641;51.306;12.384;2022-12-07T07:54:19;99724.00;;;5.40
24639;BMP180;1641;51.306;12.384;2022-12-07T07:56:44;99723.00;;;5.60
24639;BMP180;1641;51.306;12.384;2022-12-07T07:59:09;99731.00;;;5.50
24639;BMP180;1641;51.306;12.384;2022-12-07T08:01:35;99719.00;;;5.40
24639;BMP180;1641;51.306;12.384;2022-12-07T08:04:00;99725.00;;;5.20
24639;BMP180;1641;51.306;12.384;2022-12-07T08:06:25;99714.00;;;5.40
24639;BMP180;1641;51.306;12.384;2022-12-07T08:08:51;99731.00;;;5.10
24639;BMP180;1641;51.306;12.384;2022-12-07T08:11:17;99730.00;;;5.60
24639;BMP180;1641;51.306;12.384;2022-12-07T08:13:45;99725.00;;;6.00
24639;BMP180;1641;51.306;12.384;2022-12-07T08:16:12;99728.00;;;6.30
24639;BMP180;1641;51.306;12.384;2022-12-07T08:18:38;99729.00;;;5.90
24639;BMP180;1641;51.306;12.384;2022-12-07T08:21:06;99733.00;;;5.80
24639;BMP180;1641;51.306;12.384;2022-12-07T08:23:32;99740.00;;;5.90
24639;BMP180;1641;51.306;12.384;2022-12-07T08:26:02;99734.00;;;5.30
24639;BMP180;1641;51.306;12.384;2022-12-07T08:28:28;99734.00;;;5.10
24639;BMP180;1641;51.306;12.384;2022-12-07T08:31:10;99732.00;;;5.50
24639;BMP180;1641;51.306;12.384;2022-12-07T08:33:36;99732.00;;;5.40
24639;BMP180;1641;51.306;12.384;2022-12-07T08:36:03;99730.00;;;5.60
24639;BMP180;1641;51.306;12.384;2022-12-07T08:38:29;99717.00;;;6.00
24639;BMP180;1641;51.306;12.384;2022-12-07T08:40:55;99690.00;;;6.50
24639;BMP180;1641;51.306;12.384;2022-12-07T08:43:21;99714.00;;;8.00
24639;BMP180;1641;51.306;12.384;2022-12-07T08:45:51;99717.00;;;8.60
24639;BMP180;1641;51.306;12.384;2022-12-07T08:48:19;99733.00;;;9.10
24639;BMP180;1641;51.306;12.384;2022-12-07T08:50:47;99727.00;;;9.50
24639;BMP180;1641;51.306;12.384;2022-12-07T08:53:12;99732.00;;;8.70
24639;BMP180;1641;51.306;12.384;2022-12-07T08:55:38;99722.00;;;8.30
24639;BMP180;1641;51.306;12.384;2022-12-07T08:58:03;99727.00;;;7.50
24639;BMP180;1641;51.306;12.384;2022-12-07T09:00:28;99730.00;;;6.50
24639;BMP180;1641;51.306;12.384;2022-12-07T09:02:54;99734.00;;;6.30
24639;BMP180;1641;51.306;12.384;2022-12-07T09:05:19;99741.00;;;6.20
24639;BMP180;1641;51.306;12.384;2022-12-07T09:07:48;99734.00;;;6.20
24639;BMP180;1641;51.306;12.384;2022-12-07T09:10:15;99735.00;;;5.90
24639;BMP180;1641;51.306;12.384;2022-12-07T09:12:40;99727.00;;;6.10
24639;BMP180;1641;51.306;12.384;2022-12-07T09:15:06;99726.00;;;6.30
24639;BMP180;1641;51.306;12.384;2022-12-07T09:17:33;99739.00;;;6.30
24639;BMP180;1641;51.306;12.384;2022-12-07T09:19:59;99745.00;;;6.10
24639;BMP180;1641;51.306;12.384;2022-12-07T09:22:29;99728.00;;;6.20
24639;BMP180;1641;51.306;12.384;2022-12-07T09:24:54;99747.00;;;6.40
24639;BMP180;1641;51.306;12.384;2022-12-07T09:27:20;99746.00;;;6.30
24639;BMP180;1641;51.306;12.384;2022-12-07T09:29:45;99738.00;;;6.10
24639;BMP180;1641;51.306;12.384;2022-12-07T09:32:10;99747.00;;;6.50
24639;BMP180;1641;51.306;12.384;2022-12-07T09:34:36;99743.00;;;6.70
24639;BMP180;1641;51.306;12.384;2022-12-07T09:37:01;99742.00;;;6.10
24639;BMP180;1641;51.306;12.384;2022-12-07T09:39:28;99728.00;;;6.20
24639;BMP180;1641;51.306;12.384;2022-12-07T09:41:54;99712.00;;;6.10
24639;BMP180;1641;51.306;12.384;2022-12-07T09:44:24;99732.00;;;6.20
24639;BMP180;1641;51.306;12.384;2022-12-07T09:46:50;99733.00;;;6.30
24639;BMP180;1641;51.306;12.384;2022-12-07T09:49:23;99712.00;;;6.30
24639;BMP180;1641;51.306;12.384;2022-12-07T09:54:36;99732.00;;;6.20
24639;BMP180;1641;51.306;12.384;2022-12-07T09:57:01;99726.00;;;6.30
24639;BMP180;1641;51.306;12.384;2022-12-07T09:59:27;99723.00;;;6.10
24639;BMP180;1641;51.306;12.384;2022-12-07T10:01:52;99725.00;;;6.10
24639;BMP180;1641;51.306;12.384;2022-12-07T10:04:26;99722.00;;;6.40
24639;BMP180;1641;51.306;12.384;2022-12-07T10:06:51;99722.00;;;6.40
24639;BMP180;1641;51.306;12.384;2022-12-07T10:09:19;99716.00;;;6.60
24639;BMP180;1641;51.306;12.384;2022-12-07T10:11:58;99723.00;;;6.80
24639;BMP180;1641;51.306;12.384;2022-12-07T10:14:26;99720.00;;;6.50
24639;BMP180;1641;51.306;12.384;2022-12-07T10:16:52;99719.00;;;6.10
24639;BMP180;1641;51.306;12.384;2022-12-07T10:19:30;99714.00;;;6.70
24639;BMP180;1641;51.306;12.384;2022-12-07T10:24:28;99713.00;;;6.70
24639;BMP180;1641;51.306;12.384;2022-12-07T10:26:53;99704.00;;;6.40
24639;BMP180;1641;51.306;12.384;2022-12-07T10:29:27;99710.00;;;6.70
24639;BMP180;1641;51.306;12.384;2022-12-07T10:34:27;99708.00;;;6.90
24639;BMP180;1641;51.306;12.384;2022-12-07T10:37:16;99708.00;;;6.70
24639;BMP180;1641;51.306;12.384;2022-12-07T10:39:49;99710.00;;;6.80
24639;BMP180;1641;51.306;12.384;2022-12-07T10:42:20;99702.00;;;6.70
24639;BMP180;1641;51.306;12.384;2022-12-07T10:44:47;99695.00;;;6.10
24639;BMP180;1641;51.306;12.384;2022-12-07T10:47:33;99700.00;;;6.50
24639;BMP180;1641;51.306;12.384;2022-12-07T10:53:03;99709.00;;;6.30
24639;BMP180;1641;51.306;12.384;2022-12-07T10:59:09;99705.00;;;6.00
24639;BMP180;1641;51.306;12.384;2022-12-07T11:01:57;99703.00;;;5.70
24639;BMP180;1641;51.306;12.384;2022-12-07T11:04:43;99690.00;;;6.20
24639;BMP180;1641;51.306;12.384;2022-12-07T11:07:23;99693.00;;;6.10
24639;BMP180;1641;51.306;12.384;2022-12-07T11:15:21;99686.00;;;6.20
24639;BMP180;1641;51.306;12.384;2022-12-07T11:18:13;99685.00;;;5.80
24639;BMP180;1641;51.306;12.384;2022-12-07T11:23:18;99687.00;;;6.60
24639;BMP180;1641;51.306;12.384;2022-12-07T11:31:18;99670.00;;;6.50
24639;BMP180;1641;51.306;12.384;2022-12-07T11:33:53;99668.00;;;6.30
24639;BMP180;1641;51.306;12.384;2022-12-07T11:36:46;99668.00;;;6.10
24639;BMP180;1641;51.306;12.384;2022-12-07T11:39:24;99669.00;;;6.00
24639;BMP180;1641;51.306;12.384;2022-12-07T11:41:56;99675.00;;;6.00
24639;BMP180;1641;51.306;12.384;2022-12-07T11:44:48;99673.00;;;6.30
24639;BMP180;1641;51.306;12.384;2022-12-07T11:50:24;99664.00;;;6.30
24639;BMP180;1641;51.306;12.384;2022-12-07T11:52:58;99661.00;;;6.20
24639;BMP180;1641;51.306;12.384;2022-12-07T11:55:32;99681.00;;;6.30
24639;BMP180;1641;51.306;12.384;2022-12-07T11:58:09;99680.00;;;6.10
24639;BMP180;1641;51.306;12.384;2022-12-07T12:00:37;99674.00;;;6.20
24639;BMP180;1641;51.306;12.384;2022-12-07T12:03:11;99672.00;;;6.30
24639;BMP180;1641;51.306;12.384;2022-12-07T12:05:38;99673.00;;;6.50
24639;BMP180;1641;51.306;12.384;2022-12-07T12:08:17;99669.00;;;6.40
24639;BMP180;1641;51.306;12.384;2022-12-07T12:10:58;99665.00;;;6.60
24639;BMP180;1641;51.306;12.384;2022-12-07T12:21:42;99658.00;;;6.50
24639;BMP180;1641;51.306;12.384;2022-12-07T12:24:15;99649.00;;;6.60
24639;BMP180;1641;51.306;12.384;2022-12-07T12:26:51;99651.00;;;6.20
24639;BMP180;1641;51.306;12.384;2022-12-07T12:29:33;99655.00;;;6.70
24639;BMP180;1641;51.306;12.384;2022-12-07T12:32:17;99650.00;;;6.40
24639;BMP180;1641;51.306;12.384;2022-12-07T12:45:36;99655.00;;;7.10
24639;BMP180;1641;51.306;12.384;2022-12-07T12:48:02;99650.00;;;7.40
24639;BMP180;1641;51.306;12.384;2022-12-07T12:50:30;99638.00;;;7.20
24639;BMP180;1641;51.306;12.384;2022-12-07T12:58:42;99635.00;;;7.10
24639;BMP180;1641;51.306;12.384;2022-12-07T13:03:56;99625.00;;;7.10
24639;BMP180;1641;51.306;12.384;2022-12-07T13:08:50;99635.00;;;7.00
24639;BMP180;1641;51.306;12.384;2022-12-07T13:11:19;99627.00;;;7.00
24639;BMP180;1641;51.306;12.384;2022-12-07T13:13:45;99628.00;;;6.60
24639;BMP180;1641;51.306;12.384;2022-12-07T13:18:41;99633.00;;;6.70
24639;BMP180;1641;51.306;12.384;2022-12-07T13:26:26;99622.00;;;6.60
24639;BMP180;1641;51.306;12.384;2022-12-07T13:34:31;99615.00;;;6.90
24639;BMP180;1641;51.306;12.384;2022-12-07T13:36:59;99614.00;;;6.60
24639;BMP180;1641;51.306;12.384;2022-12-07T13:39:27;99612.00;;;6.20
24639;BMP180;1641;51.306;12.384;2022-12-07T13:41:55;99617.00;;;6.30
24639;BMP180;1641;51.306;12.384;2022-12-07T13:44:22;99623.00;;;6.60
24639;BMP180;1641;51.306;12.384;2022-12-07T13:51:47;99601.00;;;6.70
24639;BMP180;1641;51.306;12.384;2022-12-07T13:54:14;99619.00;;;6.30
24639;BMP180;1641;51.306;12.384;2022-12-07T13:56:40;99594.00;;;6.10
24639;BMP180;1641;51.306;12.384;2022-12-07T13:59:14;99617.00;;;6.20
24639;BMP180;1641;51.306;12.384;2022-12-07T14:01:41;99614.00;;;6.20
24639;BMP180;1641;51.306;12.384;2022-12-07T14:06:52;99630.00;;;6.30
24639;BMP180;1641;51.306;12.384;2022-12-07T14:09:23;99634.00;;;5.90
24639;BMP180;1641;51.306;12.384;2022-12-07T14:11:49;99628.00;;;6.10
24639;BMP180;1641;51.306;12.384;2022-12-07T14:14:21;99629.00;;;6.20
24639;BMP180;1641;51.306;12.384;2022-12-07T14:17:12;99620.00;;;6.10
24639;BMP180;1641;51.306;12.384;2022-12-07T14:19:57;99622.00;;;6.40
24639;BMP180;1641;51.306;12.384;2022-12-07T14:22:37;99630.00;;;6.30
24639;BMP180;1641;51.306;12.384;2022-12-07T14:30:18;99633.00;;;6.70
24639;BMP180;1641;51.306;12.384;2022-12-07T14:32:44;99629.00;;;6.30
24639;BMP180;1641;51.306;12.384;2022-12-07T14:35:15;99625.00;;;6.00
24639;BMP180;1641;51.306;12.384;2022-12-07T14:37:42;99634.00;;;6.20
24639;BMP180;1641;51.306;12.384;2022-12-07T14:40:19;99631.00;;;6.70
24639;BMP180;1641;51.306;12.384;2022-12-07T14:42:46;99630.00;;;5.90
24639;BMP180;1641;51.306;12.384;2022-12-07T14:45:18;99620.00;;;6.30
24639;BMP180;1641;51.306;12.384;2022-12-07T14:47:44;99618.00;;;6.40
24639;BMP180;1641;51.306;12.384;2022-12-07T14:50:16;99621.00;;;6.20
24639;BMP180;1641;51.306;12.384;2022-12-07T14:52:43;99629.00;;;5.90
24639;BMP180;1641;51.306;12.384;2022-12-07T14:55:25;99618.00;;;5.90
24639;BMP180;1641;51.306;12.384;2022-12-07T14:57:51;99621.00;;;5.70
24639;BMP180;1641;51.306;12.384;2022-12-07T15:00:17;99624.00;;;5.80
24639;BMP180;1641;51.306;12.384;2022-12-07T15:02:47;99613.00;;;5.90
24639;BMP180;1641;51.306;12.384;2022-12-07T15:05:17;99612.00;;;6.10
24639;BMP180;1641;51.306;12.384;2022-12-07T15:07:43;99592.00;;;6.10
24639;BMP180;1641;51.306;12.384;2022-12-07T15:10:21;99611.00;;;6.10
24639;BMP180;1641;51.306;12.384;2022-12-07T15:12:47;99622.00;;;6.10
24639;BMP180;1641;51.306;12.384;2022-12-07T15:15:13;99620.00;;;5.70
24639;BMP180;1641;51.306;12.384;2022-12-07T15:17:38;99620.00;;;5.80
24639;BMP180;1641;51.306;12.384;2022-12-07T15:20:05;99618.00;;;5.60
24639;BMP180;1641;51.306;12.384;2022-12-07T15:22:30;99614.00;;;5.70
24639;BMP180;1641;51.306;12.384;2022-12-07T15:24:57;99628.00;;;5.70
24639;BMP180;1641;51.306;12.384;2022-12-07T15:27:22;99624.00;;;5.80
24639;BMP180;1641;51.306;12.384;2022-12-07T15:29:47;99624.00;;;5.90
24639;BMP180;1641;51.306;12.384;2022-12-07T15:32:16;99627.00;;;5.90
24639;BMP180;1641;51.306;12.384;2022-12-07T15:34:41;99627.00;;;5.90
24639;BMP180;1641;51.306;12.384;2022-12-07T15:37:07;99629.00;;;6.10
24639;BMP180;1641;51.306;12.384;2022-12-07T15:39:33;99630.00;;;5.80
24639;BMP180;1641;51.306;12.384;2022-12-07T15:42:04;99634.00;;;6.00
24639;BMP180;1641;51.306;12.384;2022-12-07T15:44:30;99631.00;;;5.90
24639;BMP180;1641;51.306;12.384;2022-12-07T15:47:39;99610.00;;;5.80
24639;BMP180;1641;51.306;12.384;2022-12-07T15:50:07;99646.00;;;5.80
24639;BMP180;1641;51.306;12.384;2022-12-07T15:52:43;99636.00;;;5.80
24639;BMP180;1641;51.306;12.384;2022-12-07T15:55:09;99630.00;;;5.90
24639;BMP180;1641;51.306;12.384;2022-12-07T15:57:36;99627.00;;;6.20
24639;BMP180;1641;51.306;12.384;2022-12-07T16:00:07;99637.00;;;6.50
24639;BMP180;1641;51.306;12.384;2022-12-07T16:02:48;99636.00;;;6.40
24639;BMP180;1641;51.306;12.384;2022-12-07T16:05:13;99635.00;;;5.90
24639;BMP180;1641;51.306;12.384;2022-12-07T16:07:39;99630.00;;;6.40
24639;BMP180;1641;51.306;12.384;2022-12-07T16:10:05;99561.00;;;6.30
24639;BMP180;1641;51.306;12.384;2022-12-07T16:12:33;99640.00;;;6.00
24639;BMP180;1641;51.306;12.384;2022-12-07T16:15:17;99644.00;;;6.10
24639;BMP180;1641;51.306;12.384;2022-12-07T16:17:42;99662.00;;;6.10
24639;BMP180;1641;51.306;12.384;2022-12-07T16:20:08;99598.00;;;6.00
24639;BMP180;1641;51.306;12.384;2022-12-07T16:22:52;99643.00;;;5.00
24639;BMP180;1641;51.306;12.384;2022-12-07T16:25:18;99668.00;;;4.50
24639;BMP180;1641;51.306;12.384;2022-12-07T16:27:43;99662.00;;;4.50